Time;durP1;ratioP1;P1;durP2;ratioP2;P2;SDS_P1;SDS_P2;PMS_P1;PMS_P2;Temp;Humidity;BMP_temperature;BMP_pressure;BME280_temperature;BME280_humidity;BME280_pressure;Samples;Min_cycle;Max_cycle;Signal;HPM_P1;HPM_P2
2022/08/22 00:01:40;;;;;;;7.80;4.45;;;;;;;15.73;100.00;100655.59;6070123;29;20053;-87
2022/08/22 00:05:09;;;;;;;7.32;3.97;;;;;;;15.67;100.00;100654.34;6131283;28;20129;-87
2022/08/22 00:08:57;;;;;;;5.82;4.45;;;;;;;15.64;100.00;100652.03;6147539;28;20054;-87
2022/08/22 00:12:40;;;;;;;7.68;4.70;;;;;;;15.60;100.00;100654.16;6156728;28;20047;-87
2022/08/22 00:15:50;;;;;;;9.73;5.05;;;;;;;15.59;100.00;100655.09;6129583;29;20107;-87
2022/08/22 00:19:16;;;;;;;8.15;4.63;;;;;;;15.61;100.00;100652.34;6115389;29;20051;-87
2022/08/22 00:22:39;;;;;;;6.78;4.25;;;;;;;15.62;100.00;100648.75;6123459;29;20047;-87
2022/08/22 00:26:14;;;;;;;5.63;4.32;;;;;;;15.64;100.00;100652.03;6164243;28;20213;-87
2022/08/22 00:29:24;;;;;;;10.77;5.03;;;;;;;15.63;100.00;100659.06;6179221;28;20491;-87
2022/08/22 00:32:37;;;;;;;6.65;4.45;;;;;;;15.62;100.00;100665.22;6171082;28;20059;-87
2022/08/22 00:35:46;;;;;;;7.07;4.32;;;;;;;15.56;100.00;100660.63;6171919;28;20050;-87
2022/08/22 00:39:01;;;;;;;7.05;4.57;;;;;;;15.48;100.00;100657.97;6179154;28;20504;-87
2022/08/22 00:42:06;;;;;;;7.10;4.43;;;;;;;15.44;100.00;100660.03;6177639;28;20049;-87
2022/08/22 00:45:28;;;;;;;6.82;4.47;;;;;;;15.37;100.00;100658.16;6171447;28;20145;-87
2022/08/22 00:49:01;;;;;;;7.38;4.35;;;;;;;15.35;100.00;100662.72;6170372;28;20057;-87
2022/08/22 00:52:22;;;;;;;7.22;4.85;;;;;;;15.28;100.00;100668.53;6186404;28;20053;-88
2022/08/22 00:55:47;;;;;;;6.68;4.75;;;;;;;15.25;100.00;100652.34;6192346;28;20046;-87
2022/08/22 00:59:26;;;;;;;7.43;4.43;;;;;;;15.24;100.00;100655.94;6191565;28;20249;-87
2022/08/22 01:03:12;;;;;;;6.28;4.40;;;;;;;15.19;100.00;100656.38;6193032;28;20499;-87
2022/08/22 01:06:51;;;;;;;5.35;4.50;;;;;;;15.14;100.00;100658.59;6186004;28;20043;-87
2022/08/22 01:10:31;;;;;;;5.22;4.70;;;;;;;15.14;100.00;100652.56;6210271;28;20114;-87
2022/08/22 01:14:11;;;;;;;7.88;4.68;;;;;;;15.06;100.00;100654.13;6208981;28;20407;-87
2022/08/22 01:17:19;;;;;;;;;;;;;;;14.97;100.00;100648.97;6117145;28;20158;-87
2022/08/22 01:20:36;;;;;;;6.07;4.88;;;;;;;14.91;100.00;100649.56;6122246;29;19926;-87
2022/08/22 01:24:03;;;;;;;6.25;5.43;;;;;;;14.86;100.00;100648.22;6125440;29;20126;-87
2022/08/22 01:27:43;;;;;;;5.50;4.95;;;;;;;14.81;100.00;100642.63;6122075;29;20589;-88
2022/08/22 01:31:24;;;;;;;6.53;5.43;;;;;;;14.78;100.00;100647.28;6107801;29;20070;-87
2022/08/22 01:34:44;;;;;;;7.80;5.43;;;;;;;14.74;100.00;100653.78;6120492;28;20119;-87
2022/08/22 01:38:04;;;;;;;6.82;5.18;;;;;;;14.66;100.00;100651.91;6121644;29;20513;-87
2022/08/22 01:41:36;;;;;;;8.33;5.40;;;;;;;14.61;100.00;100649.72;6124054;28;20054;-87
2022/08/22 01:44:50;;;;;;;8.32;5.35;;;;;;;14.61;100.00;100643.69;6122336;28;20043;-87
2022/08/22 01:48:10;;;;;;;8.35;5.03;;;;;;;14.56;100.00;100638.91;6110744;28;20067;-87
2022/08/22 01:51:41;;;;;;;6.07;5.28;;;;;;;14.55;100.00;100646.84;6111373;29;20078;-87
2022/08/22 01:54:48;;;;;;;7.20;5.03;;;;;;;14.53;100.00;100656.56;6170872;28;20049;-87
2022/08/22 01:57:59;;;;;;;8.95;5.85;;;;;;;14.51;100.00;100648.91;6207014;28;20253;-87
2022/08/22 02:01:35;;;;;;;7.15;4.88;;;;;;;14.49;100.00;100644.81;6202674;28;20074;-87
2022/08/22 02:05:21;;;;;;;8.80;5.13;;;;;;;14.45;100.00;100639.06;6206599;28;20081;-87
2022/08/22 02:08:36;;;;;;;5.00;4.60;;;;;;;14.44;100.00;100645.22;6187512;28;20412;-87
2022/08/22 02:12:21;;;;;;;5.78;4.70;;;;;;;14.43;100.00;100651.38;6203231;28;20526;-87
2022/08/22 02:15:34;;;;;;;8.00;5.00;;;;;;;14.44;100.00;100653.06;6194127;28;20496;-87
2022/08/22 02:18:51;;;;;;;5.05;4.32;;;;;;;14.41;100.00;100648.94;6192170;28;20499;-87
2022/08/22 02:22:06;;;;;;;5.47;4.35;;;;;;;14.41;100.00;100648.13;6189681;28;20034;-87
2022/08/22 02:25:24;;;;;;;11.10;4.70;;;;;;;14.38;100.00;100644.03;6208263;28;20041;-87
2022/08/22 02:29:00;;;;;;;5.05;4.40;;;;;;;14.40;100.00;100646.47;6209462;28;20068;-87
2022/08/22 02:32:06;;;;;;;6.78;4.72;;;;;;;14.40;100.00;100646.47;6219516;28;20053;-87
2022/08/22 02:35:11;;;;;;;5.95;4.50;;;;;;;14.40;100.00;100636.06;6200168;28;20047;-87
2022/08/22 02:38:41;;;;;;;8.00;4.60;;;;;;;14.43;100.00;100649.63;6192827;28;20038;-88
2022/08/22 02:41:52;;;;;;;6.75;4.65;;;;;;;14.42;100.00;100641.94;6211190;28;20103;-87
2022/08/22 02:45:24;;;;;;;5.90;4.50;;;;;;;14.40;100.00;100649.91;6196123;28;20042;-87
2022/08/22 02:48:46;;;;;;;6.25;5.30;;;;;;;14.37;100.00;100655.41;6211362;28;20163;-87
2022/08/22 02:52:20;;;;;;;7.05;4.75;;;;;;;14.33;100.00;100653.22;6189213;28;20528;-87
2022/08/22 02:55:45;;;;;;;5.82;4.78;;;;;;;14.33;100.00;100646.22;6204842;28;20057;-87
2022/08/22 02:59:11;;;;;;;8.07;5.25;;;;;;;14.32;100.00;100646.38;6192472;28;20905;-87
2022/08/22 03:02:38;;;;;;;7.30;4.80;;;;;;;14.28;100.00;100648.44;6199635;28;20112;-88
2022/08/22 03:05:51;;;;;;;11.23;6.25;;;;;;;14.24;100.00;100647.09;6195143;28;20578;-87
2022/08/22 03:09:20;;;;;;;8.02;5.10;;;;;;;14.27;100.00;100646.81;6190114;28;20049;-88
2022/08/22 03:12:46;;;;;;;8.02;6.13;;;;;;;14.28;100.00;100642.41;6198343;28;20459;-87
2022/08/22 03:15:57;;;;;;;8.25;5.28;;;;;;;14.23;100.00;100645.44;6197629;28;20042;-87
2022/08/22 03:19:05;;;;;;;;;;;;;;;14.25;100.00;100640.91;6210411;28;20045;-88
2022/08/22 03:22:22;;;;;;;10.00;5.32;;;;;;;14.25;100.00;100634.88;6188227;28;19930;-87
2022/08/22 03:25:23;;;;;;;9.18;5.38;;;;;;;14.25;100.00;100643.50;6202197;28;20385;-87
2022/08/22 03:28:42;;;;;;;7.57;5.10;;;;;;;14.28;100.00;100632.00;6198472;28;20572;-88
2022/08/22 03:32:14;;;;;;;8.65;5.38;;;;;;;14.29;100.00;100634.47;6191548;28;20046;-87
2022/08/22 03:35:49;;;;;;;8.45;5.47;;;;;;;14.22;100.00;100630.78;6201734;28;20041;-87
2022/08/22 03:39:23;;;;;;;6.03;4.75;;;;;;;14.21;100.00;100626.56;6194452;28;20475;-88
2022/08/22 03:42:52;;;;;;;5.43;4.65;;;;;;;14.18;100.00;100627.63;6134935;28;20055;-87
2022/08/22 03:46:32;;;;;;;7.43;5.63;;;;;;;14.18;100.00;100626.81;6150044;28;20069;-88
2022/08/22 03:49:40;;;;;;;8.80;5.25;;;;;;;14.15;100.00;100629.72;6151718;28;20572;-88
2022/08/22 03:53:15;;;;;;;10.30;5.28;;;;;;;14.10;100.00;100629.31;6146356;28;20059;-88
2022/08/22 03:56:44;;;;;;;10.27;4.88;;;;;;;14.08;100.00;100626.03;6131988;28;20054;-88
2022/08/22 04:00:18;;;;;;;6.43;4.75;;;;;;;14.07;100.00;100632.22;6143612;28;20532;-87
2022/08/22 04:03:54;;;;;;;5.72;5.10;;;;;;;14.01;100.00;100628.38;6093526;29;20156;-87
2022/08/22 04:06:55;;;;;;;10.48;5.40;;;;;;;14.00;100.00;100629.34;6094945;29;20142;-88
2022/08/22 04:10:24;;;;;;;7.38;4.95;;;;;;;13.96;100.00;100628.81;6102951;29;20044;-87
2022/08/22 04:13:47;;;;;;;9.80;5.20;;;;;;;13.93;100.00;100644.69;6017333;29;20090;-87
2022/08/22 04:17:16;;;;;;;6.88;4.75;;;;;;;13.89;100.00;100643.34;6017256;29;20050;-88
2022/08/22 04:20:49;;;;;;;7.72;4.82;;;;;;;13.86;100.00;100648.81;6065275;29;20550;-87
2022/08/22 04:23:56;;;;;;;7.03;5.03;;;;;;;13.86;100.00;100659.22;6084055;29;20064;-88
2022/08/22 04:27:01;;;;;;;8.57;5.63;;;;;;;13.84;100.00;100661.16;6081297;29;20522;-88
2022/08/22 04:30:31;;;;;;;10.00;5.70;;;;;;;13.82;100.00;100668.28;6087439;29;20505;-87
2022/08/22 04:33:44;;;;;;;6.22;5.43;;;;;;;13.81;100.00;100671.00;6086735;29;20056;-87
2022/08/22 04:36:56;;;;;;;11.60;5.85;;;;;;;13.82;100.00;100672.66;6085945;29;20060;-88
2022/08/22 04:40:27;;;;;;;9.73;6.03;;;;;;;13.78;100.00;100669.50;6098511;29;20559;-87
2022/08/22 04:43:39;;;;;;;8.38;6.32;;;;;;;13.79;100.00;100678.97;6109223;29;20596;-88
2022/08/22 04:47:19;;;;;;;7.80;6.40;;;;;;;13.82;100.00;100678.69;6116058;29;20067;-88
2022/08/22 04:50:28;;;;;;;8.00;5.53;;;;;;;13.83;100.00;100680.31;6119183;28;20039;-87
2022/08/22 04:53:52;;;;;;;7.45;6.10;;;;;;;13.87;100.00;100683.47;6162036;28;20505;-87
2022/08/22 04:57:13;;;;;;;7.72;6.22;;;;;;;13.88;100.00;100683.31;6164038;28;20051;-87
2022/08/22 05:00:15;;;;;;;8.13;5.88;;;;;;;13.92;100.00;100682.09;6152841;28;20047;-88
2022/08/22 05:03:22;;;;;;;7.93;6.18;;;;;;;13.93;100.00;100690.72;6156912;28;20036;-87
2022/08/22 05:06:29;;;;;;;12.40;6.55;;;;;;;13.95;100.00;100689.59;6156159;28;20193;-87
2022/08/22 05:09:35;;;;;;;9.43;6.47;;;;;;;13.98;100.00;100689.31;6147670;28;20042;-88
2022/08/22 05:13:01;;;;;;;8.00;5.70;;;;;;;14.02;100.00;100686.47;6157279;28;20050;-88
2022/08/22 05:16:07;;;;;;;10.75;6.47;;;;;;;14.06;100.00;100687.81;6163416;28;20054;-88
2022/08/22 05:19:16;;;;;;;6.93;5.55;;;;;;;14.10;100.00;100682.19;6158383;28;20081;-88
2022/08/22 05:22:33;;;;;;;7.35;5.75;;;;;;;14.18;100.00;100700.53;6153233;28;20045;-87
2022/08/22 05:25:39;;;;;;;9.65;5.80;;;;;;;14.20;100.00;100688.19;6211735;28;20058;-88
2022/08/22 05:28:51;;;;;;;7.47;5.50;;;;;;;14.27;100.00;100696.28;6214094;28;20046;-87
2022/08/22 05:32:04;;;;;;;7.70;5.53;;;;;;;14.34;100.00;100684.34;6213955;28;20042;-87
2022/08/22 05:35:08;;;;;;;8.02;5.88;;;;;;;14.37;100.00;100686.66;6204365;28;20041;-87
2022/08/22 05:38:14;;;;;;;8.07;5.82;;;;;;;14.38;100.00;100685.69;6208985;28;20127;-87
2022/08/22 05:41:22;;;;;;;9.32;6.13;;;;;;;14.42;100.00;100687.03;6212889;28;20461;-88
2022/08/22 05:44:36;;;;;;;12.93;6.15;;;;;;;14.47;100.00;100693.63;6194910;28;20046;-88
2022/08/22 05:47:45;;;;;;;9.95;5.82;;;;;;;14.51;100.00;100693.19;6195680;28;20053;-88
2022/08/22 05:51:13;;;;;;;12.48;5.40;;;;;;;14.55;100.00;100685.94;6191853;28;20045;-88
2022/08/22 05:54:20;;;;;;;7.80;5.32;;;;;;;14.60;100.00;100700.16;6196177;28;20037;-88
2022/08/22 05:57:39;;;;;;;10.75;6.15;;;;;;;14.62;100.00;100694.81;6210503;28;20035;-88
2022/08/22 06:00:46;;;;;;;6.88;5.47;;;;;;;14.63;100.00;100693.84;6200993;28;20045;-88
2022/08/22 06:04:24;;;;;;;10.57;6.15;;;;;;;14.66;100.00;100693.59;6210712;28;20080;-88
2022/08/22 06:07:26;;;;;;;8.75;5.80;;;;;;;14.73;100.00;100699.00;6200433;28;20095;-87
2022/08/22 06:10:48;;;;;;;7.75;5.65;;;;;;;14.77;100.00;100695.97;6191120;28;20041;-88
2022/08/22 06:13:56;;;;;;;9.10;6.38;;;;;;;14.84;100.00;100698.84;6189930;28;20093;-88
2022/08/22 06:17:25;;;;;;;9.93;5.95;;;;;;;14.92;100.00;100700.72;6197602;28;20046;-88
2022/08/22 06:20:51;;;;;;;7.88;5.72;;;;;;;14.95;100.00;100695.22;6203390;28;20038;-88
2022/08/22 06:23:57;;;;;;;10.48;5.93;;;;;;;14.99;100.00;100696.56;6130219;28;20235;-87
2022/08/22 06:27:07;;;;;;;8.73;5.82;;;;;;;15.04;100.00;100702.16;6156477;28;20053;-87
2022/08/22 06:30:13;;;;;;;11.60;6.07;;;;;;;15.12;100.00;100698.84;6143831;28;20610;-88
2022/08/22 06:33:20;;;;;;;9.88;5.95;;;;;;;15.19;100.00;100697.28;6161300;28;20501;-88
2022/08/22 06:36:31;;;;;;;6.45;5.35;;;;;;;15.23;100.00;100704.66;6138875;28;20050;-88
2022/08/22 06:39:40;;;;;;;9.05;6.22;;;;;;;15.29;100.00;100701.47;6156669;28;20059;-88
2022/08/22 06:42:50;;;;;;;9.27;6.17;;;;;;;15.37;100.00;100707.72;6154859;28;20059;-88
2022/08/22 06:45:52;;;;;;;8.57;5.70;;;;;;;15.42;100.00;100710.72;6157782;28;20302;-88
2022/08/22 06:48:56;;;;;;;7.35;5.88;;;;;;;15.49;100.00;100715.19;6140749;28;20071;-88
2022/08/22 06:52:05;;;;;;;6.80;5.63;;;;;;;15.57;100.00;100706.59;6146149;28;20046;-88
2022/08/22 06:55:08;;;;;;;5.88;4.88;;;;;;;15.65;100.00;100709.31;6156019;28;20685;-88
2022/08/22 06:58:19;;;;;;;5.28;4.78;;;;;;;15.75;100.00;100711.03;6158377;28;20343;-88
2022/08/22 07:01:26;;;;;;;6.20;4.43;;;;;;;15.80;100.00;100716.63;6195073;28;20078;-88
2022/08/22 07:04:29;;;;;;;4.82;4.28;;;;;;;15.88;100.00;100716.72;6206357;28;20038;-88
2022/08/22 07:07:31;;;;;;;10.27;5.57;;;;;;;15.97;100.00;100726.22;6203140;28;20034;-88
2022/08/22 07:10:33;;;;;;;7.65;4.38;;;;;;;16.04;100.00;100727.25;6194914;28;20049;-88
2022/08/22 07:13:37;;;;;;;8.40;5.30;;;;;;;16.10;100.00;100724.06;6193605;28;20049;-88
2022/08/22 07:17:08;;;;;;;7.03;5.55;;;;;;;16.18;100.00;100727.69;6194365;28;20061;-88
2022/08/22 07:20:27;;;;;;;7.68;5.38;;;;;;;16.25;100.00;100720.91;6196759;28;20046;-88
2022/08/22 07:23:38;;;;;;;8.98;5.38;;;;;;;16.31;100.00;100728.09;6206865;28;20042;-88
2022/08/22 07:26:55;;;;;;;8.20;5.20;;;;;;;16.38;100.00;100723.91;6219797;28;20049;-88
2022/08/22 07:30:11;;;;;;;10.20;5.78;;;;;;;16.45;100.00;100729.34;6213739;28;20116;-88
2022/08/22 07:33:32;;;;;;;7.45;4.90;;;;;;;16.50;100.00;100725.28;6227561;28;20054;-88
2022/08/22 07:36:55;;;;;;;;;;;;;;;16.58;100.00;100733.16;6213517;28;20052;-88
2022/08/22 07:40:22;;;;;;;6.32;4.35;;;;;;;16.69;100.00;100737.28;6206309;28;20407;-88
2022/08/22 07:43:38;;;;;;;5.57;4.65;;;;;;;16.80;100.00;100738.88;6213665;28;20049;-88
2022/08/22 07:47:12;;;;;;;4.90;3.88;;;;;;;16.90;100.00;100736.13;6227365;28;20407;-88
2022/08/22 07:50:21;;;;;;;11.73;4.38;;;;;;;17.00;100.00;100745.50;6190063;28;20053;-88
2022/08/22 07:54:10;;;;;;;5.03;3.93;;;;;;;17.11;100.00;100740.94;6212135;28;20054;-88
2022/08/22 07:57:14;;;;;;;10.25;6.43;;;;;;;17.18;100.00;100737.53;6145496;28;20059;-88
2022/08/22 08:00:20;;;;;;;5.78;4.13;;;;;;;17.24;100.00;100733.44;6128458;28;20066;-88
2022/08/22 08:03:24;;;;;;;5.75;4.13;;;;;;;17.31;100.00;100737.06;6137636;28;20117;-88
2022/08/22 08:06:27;;;;;;;6.72;4.60;;;;;;;17.41;100.00;100732.50;6125696;28;20046;-88
2022/08/22 08:09:33;;;;;;;7.30;4.47;;;;;;;17.50;100.00;100735.16;6124366;28;20449;-88
2022/08/22 08:12:50;;;;;;;4.28;3.88;;;;;;;17.64;100.00;100734.53;6130217;28;20077;-88
2022/08/22 08:16:07;;;;;;;4.47;3.72;;;;;;;17.77;100.00;100731.44;6133546;28;20142;-88
2022/08/22 08:19:11;;;;;;;6.15;4.43;;;;;;;17.91;100.00;100735.22;6135055;28;20051;-88
2022/08/22 08:22:17;;;;;;;5.63;4.40;;;;;;;18.10;98.50;100732.25;6134790;28;20454;-88
2022/08/22 08:25:24;;;;;;;6.57;4.20;;;;;;;18.21;98.57;100741.56;6134229;28;20055;-88
2022/08/22 08:28:36;;;;;;;8.07;4.05;;;;;;;18.33;97.21;100732.38;6134230;28;20039;-88
2022/08/22 08:31:41;;;;;;;6.30;3.83;;;;;;;18.49;95.49;100726.31;6137054;28;20533;-87
2022/08/22 08:34:45;;;;;;;4.15;3.42;;;;;;;18.61;94.11;100732.03;6210459;28;20038;-88
2022/08/22 08:38:06;;;;;;;4.75;3.35;;;;;;;18.71;92.80;100727.38;6207584;28;20400;-88
2022/08/22 08:41:45;;;;;;;4.93;3.30;;;;;;;18.82;92.00;100720.97;6194551;28;20485;-88
2022/08/22 08:45:25;;;;;;;8.93;4.00;;;;;;;18.94;91.82;100717.00;6206858;28;20379;-88
2022/08/22 08:48:46;;;;;;;5.22;3.45;;;;;;;19.04;90.78;100727.28;6209988;28;20042;-88
2022/08/22 08:52:22;;;;;;;10.23;3.47;;;;;;;19.15;90.17;100717.22;6208602;28;20492;-88
2022/08/22 08:55:38;;;;;;;4.80;3.33;;;;;;;19.27;89.31;100714.19;6227627;28;20045;-88
2022/08/22 08:58:53;;;;;;;6.95;3.50;;;;;;;19.41;87.37;100717.88;6215618;28;20508;-88
2022/08/22 09:02:29;;;;;;;4.22;3.00;;;;;;;19.51;85.91;100719.28;6202982;28;20038;-87
2022/08/22 09:06:42;;;;;;;5.50;3.70;;;;;;;19.74;84.69;100706.16;6226081;28;20487;-88
2022/08/22 09:10:17;;;;;;;8.48;4.70;;;;;;;19.96;83.33;100704.50;6170542;28;20058;-88
2022/08/22 09:13:40;;;;;;;8.57;3.85;;;;;;;20.13;82.23;100707.00;6179295;28;20044;-88
2022/08/22 09:17:01;;;;;;;7.38;4.43;;;;;;;20.32;81.08;100703.84;6180708;28;20046;-88
2022/08/22 09:20:21;;;;;;;9.18;4.50;;;;;;;20.47;79.36;100705.63;6179603;28;20542;-88
2022/08/22 09:23:56;;;;;;;6.75;4.55;;;;;;;20.64;76.70;100707.09;6178486;28;20084;-88
2022/08/22 09:27:05;;;;;;;6.05;4.05;;;;;;;20.74;76.46;100707.63;6176562;28;20096;-88
2022/08/22 09:30:18;;;;;;;5.28;3.28;;;;;;;20.82;74.99;100702.28;6178198;28;20066;-88
2022/08/22 09:33:54;;;;;;;7.28;3.28;;;;;;;20.98;76.59;100697.81;6187644;28;20065;-88
2022/08/22 09:37:21;;;;;;;5.43;2.70;;;;;;;21.15;75.83;100688.69;6176369;28;20042;-88
2022/08/22 09:40:32;;;;;;;5.25;3.10;;;;;;;21.27;73.81;100689.81;6197138;28;20060;-88
2022/08/22 09:43:55;;;;;;;7.22;3.55;;;;;;;21.37;71.18;100680.81;6216254;28;20495;-88
2022/08/22 09:47:05;;;;;;;2.90;2.60;;;;;;;21.56;70.86;100689.91;6216678;28;20057;-88
2022/08/22 09:50:19;;;;;;;5.63;2.90;;;;;;;21.80;67.55;100691.34;6207910;28;20613;-88
2022/08/22 09:53:43;;;;;;;6.07;2.85;;;;;;;21.98;67.06;100677.69;6206768;28;20046;-88
2022/08/22 09:57:12;;;;;;;3.80;2.63;;;;;;;22.18;65.56;100678.63;6213235;28;20432;-88
2022/08/22 10:00:21;;;;;;;5.53;3.20;;;;;;;22.27;63.15;100676.69;6211102;28;20065;-88
2022/08/22 10:03:44;;;;;;;3.65;2.45;;;;;;;22.39;63.42;100675.13;6227579;28;20042;-89
2022/08/22 10:07:11;;;;;;;6.10;3.55;;;;;;;22.58;60.90;100665.66;6216136;28;20044;-89
2022/08/22 10:10:32;;;;;;;5.22;3.17;;;;;;;22.71;60.69;100662.28;6232848;28;20049;-88
2022/08/22 10:14:11;;;;;;;10.20;3.03;;;;;;;22.86;59.79;100660.28;6198646;28;20504;-89
2022/08/22 10:17:21;;;;;;;6.20;2.83;;;;;;;23.06;58.50;100660.38;6190918;28;20088;-89
2022/08/22 10:20:57;;;;;;;4.70;2.50;;;;;;;23.22;57.27;100652.06;6195584;28;20147;-89
2022/08/22 10:24:27;;;;;;;6.03;1.90;;;;;;;23.40;51.08;100656.78;6144768;28;20456;-88
2022/08/22 10:27:31;;;;;;;5.13;2.05;;;;;;;23.60;53.40;100651.50;6157301;28;20158;-89
2022/08/22 10:31:08;;;;;;;2.53;1.83;;;;;;;23.83;51.46;100652.91;6143350;28;20050;-89
2022/08/22 10:34:19;;;;;;;2.70;1.77;;;;;;;24.08;50.47;100650.44;6119748;28;20493;-89
2022/08/22 10:37:31;;;;;;;3.05;2.05;;;;;;;24.36;51.03;100650.13;6139924;28;20178;-89
2022/08/22 10:40:55;;;;;;;4.38;2.05;;;;;;;24.72;47.28;100646.16;6134734;28;20055;-89
2022/08/22 10:44:20;;;;;;;3.45;1.80;;;;;;;25.03;47.40;100648.00;6153832;28;20038;-89
2022/08/22 10:47:34;;;;;;;4.78;1.98;;;;;;;25.21;47.93;100644.66;6173445;28;20189;-89
2022/08/22 10:51:11;;;;;;;5.95;2.05;;;;;;;25.34;47.18;100643.72;6142937;28;20608;-89
2022/08/22 10:54:44;;;;;;;2.55;1.70;;;;;;;25.55;47.24;100642.56;6165815;28;20065;-89
2022/08/22 10:58:08;;;;;;;3.65;2.03;;;;;;;25.63;45.28;100638.81;6161479;28;20054;-89
2022/08/22 11:01:14;;;;;;;3.08;1.60;;;;;;;25.72;45.74;100642.81;6189809;28;20054;-89
2022/08/22 11:05:14;;;;;;;3.33;1.90;;;;;;;25.91;44.75;100641.84;6206867;28;20488;-89
2022/08/22 11:08:27;;;;;;;3.70;2.00;;;;;;;26.24;45.34;100639.88;6218779;28;20038;-89
2022/08/22 11:11:35;;;;;;;6.00;1.83;;;;;;;26.62;41.83;100639.63;6206494;28;20038;-89
2022/08/22 11:14:47;;;;;;;4.20;1.70;;;;;;;26.81;40.37;100638.56;6211761;28;20054;-89
2022/08/22 11:18:26;;;;;;;3.47;2.00;;;;;;;26.95;41.76;100633.84;6226115;28;20045;-89
2022/08/22 11:22:08;;;;;;;3.38;1.90;;;;;;;27.23;43.31;100627.13;6228900;28;20044;-89
2022/08/22 11:25:43;;;;;;;2.20;1.50;;;;;;;27.58;42.96;100621.03;6218563;28;20087;-89
2022/08/22 11:29:22;;;;;;;2.67;1.85;;;;;;;27.87;40.94;100619.28;6204812;28;20061;-90
2022/08/22 11:32:42;;;;;;;4.32;1.63;;;;;;;28.13;41.99;100625.97;6228035;28;20598;-90
2022/08/22 11:36:10;;;;;;;5.15;2.00;;;;;;;28.31;40.39;100623.13;6213261;28;20161;-90
2022/08/22 11:39:44;;;;;;;4.70;2.00;;;;;;;28.32;39.66;100622.09;6206255;28;20038;-89
2022/08/22 11:43:08;;;;;;;3.53;1.85;;;;;;;28.33;39.72;100620.25;6211885;28;20471;-89
2022/08/22 11:46:34;;;;;;;1.77;1.50;;;;;;;28.17;38.07;100616.44;6203962;28;20042;-90
2022/08/22 11:49:50;;;;;;;3.97;1.80;;;;;;;27.89;39.85;100618.00;6212121;28;20428;-89
2022/08/22 11:53:13;;;;;;;2.83;1.80;;;;;;;27.76;39.66;100612.91;6198465;28;20050;-88
2022/08/22 11:56:21;;;;;;;2.10;1.33;;;;;;;27.87;40.62;100613.97;6197013;28;20498;-90
2022/08/22 11:59:52;;;;;;;2.75;1.40;;;;;;;28.05;38.92;100608.50;6200981;28;20045;-90
2022/08/22 12:03:19;;;;;;;3.22;1.48;;;;;;;28.35;40.63;100615.50;6213993;28;20261;-90
2022/08/22 12:06:45;;;;;;;4.78;2.00;;;;;;;28.56;38.29;100619.38;6216693;28;20440;-90
2022/08/22 12:10:18;;;;;;;3.75;1.73;;;;;;;28.63;37.55;100616.56;6198797;28;20057;-90
2022/08/22 12:13:54;;;;;;;3.45;1.73;;;;;;;28.62;37.77;100613.09;6202317;28;20058;-91
2022/08/22 12:17:45;;;;;;;3.80;1.80;;;;;;;28.56;37.57;100616.69;6201019;28;20073;-90
2022/08/22 12:21:39;;;;;;;4.25;1.52;;;;;;;28.49;37.25;100608.03;6192665;28;20057;-90
2022/08/22 12:25:04;;;;;;;4.47;1.70;;;;;;;28.49;38.03;100613.38;6216229;28;20041;-90
2022/08/22 12:28:24;;;;;;;2.55;1.55;;;;;;;28.52;36.59;100599.56;6214518;28;20057;-90
2022/08/22 12:31:47;;;;;;;1.60;1.42;;;;;;;28.42;38.29;100597.53;6237272;28;20050;-90
2022/08/22 12:35:08;;;;;;;4.20;1.90;;;;;;;28.49;38.36;100595.53;6216558;28;20045;-90
2022/08/22 12:38:50;;;;;;;2.80;1.63;;;;;;;28.64;37.12;100592.34;6213897;28;20042;-90
2022/08/22 12:42:24;;;;;;;4.82;2.05;;;;;;;28.72;38.37;100581.31;6203736;28;20577;-90
2022/08/22 12:45:34;;;;;;;2.92;1.80;;;;;;;28.87;39.00;100575.44;6208656;28;20050;-90
2022/08/22 12:48:40;;;;;;;2.42;1.55;;;;;;;29.06;36.60;100581.34;6201091;28;20436;-90
2022/08/22 12:52:10;;;;;;;3.55;2.10;;;;;;;29.29;38.73;100575.06;6210187;28;20038;-92
2022/08/22 12:55:36;;;;;;;4.82;2.28;;;;;;;29.54;37.67;100579.94;6198776;28;20072;-90
2022/08/22 12:59:16;;;;;;;2.40;1.45;;;;;;;29.68;37.22;100567.06;6208362;28;20397;-90
2022/08/22 13:02:26;;;;;;;1.77;1.45;;;;;;;29.82;38.06;100571.00;6208234;28;20114;-90
2022/08/22 13:05:31;;;;;;;2.67;1.88;;;;;;;29.96;35.10;100563.44;6211913;28;20038;-90
2022/08/22 13:08:44;;;;;;;3.17;1.77;;;;;;;30.03;34.95;100565.88;6205965;28;20135;-90
2022/08/22 13:11:53;;;;;;;2.55;1.67;;;;;;;29.91;34.93;100552.66;6209831;28;20065;-90
2022/08/22 13:15:21;;;;;;;2.17;1.98;;;;;;;29.96;36.59;100557.25;6212831;28;20152;-90
2022/08/22 13:18:28;;;;;;;3.92;1.80;;;;;;;30.21;36.35;100560.22;6139942;28;20055;-90
2022/08/22 13:21:36;;;;;;;2.00;1.52;;;;;;;30.34;35.54;100553.72;6136621;28;20055;-90
2022/08/22 13:24:45;;;;;;;4.07;1.75;;;;;;;30.52;34.61;100549.88;6119610;28;20050;-90
2022/08/22 13:27:58;;;;;;;3.03;1.88;;;;;;;30.60;36.53;100544.06;6120321;28;20534;-90
2022/08/22 13:31:02;;;;;;;4.75;1.92;;;;;;;30.69;35.56;100544.41;6132569;28;20504;-90
2022/08/22 13:34:19;;;;;;;2.35;1.60;;;;;;;30.74;36.00;100543.66;6139831;28;20468;-90
2022/08/22 13:37:46;;;;;;;3.10;1.50;;;;;;;30.80;35.15;100546.09;6146533;28;20051;-90
2022/08/22 13:40:51;;;;;;;2.60;1.70;;;;;;;30.82;35.09;100545.84;6123362;28;20074;-90
2022/08/22 13:44:21;;;;;;;3.55;1.58;;;;;;;30.88;33.87;100539.50;6139003;28;20039;-91
2022/08/22 13:47:25;;;;;;;1.92;1.50;;;;;;;30.77;33.21;100535.13;6121249;28;20383;-90
2022/08/22 13:50:40;;;;;;;4.95;1.90;;;;;;;30.70;34.76;100530.78;6136416;28;20047;-90
2022/08/22 13:54:19;;;;;;;4.20;1.73;;;;;;;29.99;34.93;100540.75;6143779;28;20046;-90
2022/08/22 13:57:43;;;;;;;2.58;1.70;;;;;;;29.84;36.63;100534.19;6219282;28;20541;-90
2022/08/22 14:01:29;;;;;;;4.60;1.85;;;;;;;30.44;34.82;100529.75;6207234;28;20056;-90
2022/08/22 14:04:41;;;;;;;2.22;1.77;;;;;;;30.86;34.59;100529.06;6217361;28;20053;-90
2022/08/22 14:08:06;;;;;;;2.88;1.60;;;;;;;31.19;33.08;100531.69;6211080;28;20523;-90
2022/08/22 14:11:50;;;;;;;4.43;1.70;;;;;;;31.28;33.26;100520.25;6214686;28;20046;-90
2022/08/22 14:15:00;;;;;;;1.92;1.60;;;;;;;31.46;34.52;100521.72;6203263;28;20054;-90
2022/08/22 14:18:12;;;;;;;3.42;1.75;;;;;;;31.51;33.57;100524.41;6194309;28;20038;-90
2022/08/22 14:21:15;;;;;;;3.63;1.60;;;;;;;31.50;32.75;100520.13;6200875;28;20189;-90
2022/08/22 14:24:55;;;;;;;5.25;1.77;;;;;;;31.57;31.80;100529.78;6209015;28;20468;-90
2022/08/22 14:28:03;;;;;;;3.03;1.67;;;;;;;31.66;32.78;100520.19;6199271;28;20042;-91
2022/08/22 14:31:13;;;;;;;3.65;1.70;;;;;;;31.82;31.84;100515.69;6183476;28;20046;-90
2022/08/22 14:34:15;;;;;;;3.47;1.83;;;;;;;32.10;31.88;100519.78;6201512;28;20145;-90
2022/08/22 14:37:39;;;;;;;2.65;1.63;;;;;;;32.36;31.68;100516.09;6208251;28;20556;-90
2022/08/22 14:40:43;;;;;;;1.73;1.55;;;;;;;32.44;30.38;100520.13;6188338;28;20054;-90
2022/08/22 14:44:03;;;;;;;2.60;1.63;;;;;;;32.46;30.49;100512.63;6207618;28;20432;-90
2022/08/22 14:47:17;;;;;;;2.83;1.60;;;;;;;32.45;30.61;100515.56;6207019;28;20049;-90
2022/08/22 14:50:42;;;;;;;3.10;1.45;;;;;;;32.51;31.06;100509.16;6196060;28;20579;-91
2022/08/22 14:53:45;;;;;;;2.38;1.60;;;;;;;32.54;30.65;100505.94;6205733;28;20073;-90
2022/08/22 14:56:50;;;;;;;4.75;2.08;;;;;;;32.51;31.69;100506.50;6206394;28;20056;-90
2022/08/22 14:59:52;;;;;;;2.58;1.63;;;;;;;32.46;31.05;100499.22;6204332;28;20045;-90
2022/08/22 15:03:09;;;;;;;2.78;1.77;;;;;;;32.43;31.83;100499.75;6213843;28;20477;-90
2022/08/22 15:06:28;;;;;;;2.85;1.92;;;;;;;32.44;31.18;100498.66;6230303;28;20110;-90
2022/08/22 15:09:51;;;;;;;2.60;1.50;;;;;;;32.41;30.74;100491.19;6208013;28;20042;-90
2022/08/22 15:12:57;;;;;;;3.17;1.60;;;;;;;32.44;30.61;100496.00;6200558;28;20046;-90
2022/08/22 15:16:13;;;;;;;2.63;1.60;;;;;;;32.53;31.17;100493.63;6216252;28;20077;-90
2022/08/22 15:19:31;;;;;;;2.45;1.70;;;;;;;32.67;31.38;100491.19;6206917;28;20477;-90
2022/08/22 15:22:34;;;;;;;2.25;1.60;;;;;;;32.79;31.13;100495.19;6198603;28;20121;-90
2022/08/22 15:25:42;;;;;;;2.83;1.60;;;;;;;32.88;31.44;100489.31;6215138;28;20093;-90